sensor_id;sensor_type;location;lat;lon;timestamp;P1;durP1;ratioP1;P2;durP2;ratioP2
13012;SDS011;22580;57.670;12.006;2023-09-08T00:00:46;0.25;;;0.25;;
13012;SDS011;22580;57.670;12.006;2023-09-08T00:03:13;0.70;;;0.70;;
13012;SDS011;22580;57.670;12.006;2023-09-08T00:05:40;0.60;;;0.60;;
13012;SDS011;22580;57.670;12.006;2023-09-08T00:08:10;0.50;;;0.50;;
13012;SDS011;22580;57.670;12.006;2023-09-08T00:10:39;0.50;;;0.50;;
13012;SDS011;22580;57.670;12.006;2023-09-08T00:13:07;0.30;;;0.30;;
13012;SDS011;22580;57.670;12.006;2023-09-08T00:15:34;0.52;;;0.52;;
13012;SDS011;22580;57.670;12.006;2023-09-08T00:18:02;0.60;;;0.60;;
13012;SDS011;22580;57.670;12.006;2023-09-08T00:20:30;0.60;;;0.60;;
13012;SDS011;22580;57.670;12.006;2023-09-08T00:22:57;0.50;;;0.50;;
13012;SDS011;22580;57.670;12.006;2023-09-08T00:25:24;0.70;;;0.70;;
13012;SDS011;22580;57.670;12.006;2023-09-08T00:27:53;0.70;;;0.70;;
13012;SDS011;22580;57.670;12.006;2023-09-08T00:30:20;0.70;;;0.70;;
13012;SDS011;22580;57.670;12.006;2023-09-08T00:32:47;0.75;;;0.75;;
13012;SDS011;22580;57.670;12.006;2023-09-08T00:35:14;0.63;;;0.63;;
13012;SDS011;22580;57.670;12.006;2023-09-08T00:37:41;0.70;;;0.70;;
13012;SDS011;22580;57.670;12.006;2023-09-08T00:40:10;0.90;;;0.90;;
13012;SDS011;22580;57.670;12.006;2023-09-08T00:42:37;0.80;;;0.80;;
13012;SDS011;22580;57.670;12.006;2023-09-08T00:45:08;0.70;;;0.70;;
13012;SDS011;22580;57.670;12.006;2023-09-08T00:47:36;0.68;;;0.68;;
13012;SDS011;22580;57.670;12.006;2023-09-08T00:50:03;0.60;;;0.60;;
13012;SDS011;22580;57.670;12.006;2023-09-08T00:52:32;0.70;;;0.70;;
13012;SDS011;22580;57.670;12.006;2023-09-08T00:54:59;0.60;;;0.60;;
13012;SDS011;22580;57.670;12.006;2023-09-08T00:57:26;0.60;;;0.60;;
13012;SDS011;22580;57.670;12.006;2023-09-08T00:59:54;0.70;;;0.70;;
13012;SDS011;22580;57.670;12.006;2023-09-08T01:02:23;0.80;;;0.80;;
13012;SDS011;22580;57.670;12.006;2023-09-08T01:04:50;0.80;;;0.80;;
13012;SDS011;22580;57.670;12.006;2023-09-08T01:07:19;0.90;;;0.90;;
13012;SDS011;22580;57.670;12.006;2023-09-08T01:09:48;1.20;;;1.20;;
13012;SDS011;22580;57.670;12.006;2023-09-08T01:12:17;1.10;;;1.10;;
13012;SDS011;22580;57.670;12.006;2023-09-08T01:14:48;1.48;;;1.38;;
13012;SDS011;22580;57.670;12.006;2023-09-08T01:17:15;1.70;;;1.60;;
13012;SDS011;22580;57.670;12.006;2023-09-08T01:19:44;1.70;;;1.60;;
13012;SDS011;22580;57.670;12.006;2023-09-08T01:22:21;2.05;;;1.95;;
13012;SDS011;22580;57.670;12.006;2023-09-08T01:27:45;2.13;;;2.03;;
13012;SDS011;22580;57.670;12.006;2023-09-08T01:30:15;1.80;;;1.70;;
13012;SDS011;22580;57.670;12.006;2023-09-08T01:32:42;1.80;;;1.70;;
13012;SDS011;22580;57.670;12.006;2023-09-08T01:35:10;1.48;;;1.45;;
13012;SDS011;22580;57.670;12.006;2023-09-08T01:37:41;1.70;;;1.60;;
13012;SDS011;22580;57.670;12.006;2023-09-08T01:40:10;1.20;;;1.20;;
13012;SDS011;22580;57.670;12.006;2023-09-08T01:42:40;1.35;;;1.35;;
13012;SDS011;22580;57.670;12.006;2023-09-08T01:45:08;1.38;;;1.38;;
13012;SDS011;22580;57.670;12.006;2023-09-08T01:47:35;1.52;;;1.50;;
13012;SDS011;22580;57.670;12.006;2023-09-08T01:50:03;1.52;;;1.50;;
13012;SDS011;22580;57.670;12.006;2023-09-08T01:52:31;1.95;;;1.85;;
13012;SDS011;22580;57.670;12.006;2023-09-08T01:54:59;1.95;;;1.85;;
13012;SDS011;22580;57.670;12.006;2023-09-08T01:57:26;1.70;;;1.60;;
13012;SDS011;22580;57.670;12.006;2023-09-08T01:59:55;1.42;;;1.33;;
13012;SDS011;22580;57.670;12.006;2023-09-08T02:02:21;1.73;;;1.63;;
13012;SDS011;22580;57.670;12.006;2023-09-08T02:04:48;1.73;;;1.58;;
13012;SDS011;22580;57.670;12.006;2023-09-08T02:07:17;1.60;;;1.55;;
13012;SDS011;22580;57.670;12.006;2023-09-08T02:09:44;1.50;;;1.40;;
13012;SDS011;22580;57.670;12.006;2023-09-08T02:12:11;1.85;;;1.75;;
13012;SDS011;22580;57.670;12.006;2023-09-08T02:14:38;1.83;;;1.73;;
13012;SDS011;22580;57.670;12.006;2023-09-08T02:17:07;1.85;;;1.75;;
13012;SDS011;22580;57.670;12.006;2023-09-08T02:19:35;1.80;;;1.70;;
13012;SDS011;22580;57.670;12.006;2023-09-08T02:22:02;2.08;;;1.98;;
13012;SDS011;22580;57.670;12.006;2023-09-08T02:24:29;2.00;;;1.90;;
13012;SDS011;22580;57.670;12.006;2023-09-08T02:26:56;2.03;;;1.92;;
13012;SDS011;22580;57.670;12.006;2023-09-08T02:29:23;2.03;;;1.92;;
13012;SDS011;22580;57.670;12.006;2023-09-08T02:31:50;2.17;;;2.08;;
13012;SDS011;22580;57.670;12.006;2023-09-08T02:34:19;2.83;;;2.63;;
13012;SDS011;22580;57.670;12.006;2023-09-08T02:36:46;2.90;;;2.70;;
13012;SDS011;22580;57.670;12.006;2023-09-08T02:39:16;2.90;;;2.70;;
13012;SDS011;22580;57.670;12.006;2023-09-08T02:41:43;2.90;;;2.70;;
13012;SDS011;22580;57.670;12.006;2023-09-08T02:44:10;3.08;;;2.88;;
13012;SDS011;22580;57.670;12.006;2023-09-08T02:46:37;3.33;;;3.13;;
13012;SDS011;22580;57.670;12.006;2023-09-08T02:49:05;3.20;;;3.00;;
13012;SDS011;22580;57.670;12.006;2023-09-08T02:51:34;3.65;;;3.35;;
13012;SDS011;22580;57.670;12.006;2023-09-08T02:54:01;3.38;;;3.08;;
13012;SDS011;22580;57.670;12.006;2023-09-08T02:56:29;2.70;;;2.50;;
13012;SDS011;22580;57.670;12.006;2023-09-08T02:58:56;2.42;;;2.33;;
13012;SDS011;22580;57.670;12.006;2023-09-08T03:01:23;2.50;;;2.33;;
13012;SDS011;22580;57.670;12.006;2023-09-08T03:03:50;2.38;;;2.13;;
13012;SDS011;22580;57.670;12.006;2023-09-08T03:06:18;2.50;;;2.28;;
13012;SDS011;22580;57.670;12.006;2023-09-08T03:08:48;2.03;;;1.92;;
13012;SDS011;22580;57.670;12.006;2023-09-08T03:11:15;1.80;;;1.70;;
13012;SDS011;22580;57.670;12.006;2023-09-08T03:13:42;2.20;;;2.10;;
13012;SDS011;22580;57.670;12.006;2023-09-08T03:16:09;1.95;;;1.83;;
13012;SDS011;22580;57.670;12.006;2023-09-08T03:18:36;1.80;;;1.70;;
13012;SDS011;22580;57.670;12.006;2023-09-08T03:21:04;1.70;;;1.60;;
13012;SDS011;22580;57.670;12.006;2023-09-08T03:23:35;1.10;;;1.10;;
13012;SDS011;22580;57.670;12.006;2023-09-08T03:26:04;1.02;;;1.02;;
13012;SDS011;22580;57.670;12.006;2023-09-08T03:28:32;1.50;;;1.40;;
13012;SDS011;22580;57.670;12.006;2023-09-08T03:31:01;1.40;;;1.30;;
13012;SDS011;22580;57.670;12.006;2023-09-08T03:33:28;1.30;;;1.20;;
13012;SDS011;22580;57.670;12.006;2023-09-08T03:35:56;1.00;;;1.00;;
13012;SDS011;22580;57.670;12.006;2023-09-08T03:38:26;1.42;;;1.42;;
13012;SDS011;22580;57.670;12.006;2023-09-08T03:40:53;1.70;;;1.60;;
13012;SDS011;22580;57.670;12.006;2023-09-08T03:43:21;2.60;;;2.40;;
13012;SDS011;22580;57.670;12.006;2023-09-08T03:45:48;2.10;;;2.00;;
13012;SDS011;22580;57.670;12.006;2023-09-08T03:48:15;1.80;;;1.70;;
13012;SDS011;22580;57.670;12.006;2023-09-08T03:50:43;1.70;;;1.60;;
13012;SDS011;22580;57.670;12.006;2023-09-08T03:53:12;1.67;;;1.58;;
13012;SDS011;22580;57.670;12.006;2023-09-08T03:55:39;1.70;;;1.60;;
13012;SDS011;22580;57.670;12.006;2023-09-08T03:58:06;1.90;;;1.80;;
13012;SDS011;22580;57.670;12.006;2023-09-08T04:00:35;1.80;;;1.70;;
13012;SDS011;22580;57.670;12.006;2023-09-08T04:03:03;1.85;;;1.75;;
13012;SDS011;22580;57.670;12.006;2023-09-08T04:05:30;1.30;;;1.30;;
13012;SDS011;22580;57.670;12.006;2023-09-08T04:07:58;1.70;;;1.60;;
13012;SDS011;22580;57.670;12.006;2023-09-08T04:10:25;1.80;;;1.70;;
13012;SDS011;22580;57.670;12.006;2023-09-08T04:12:52;1.60;;;1.50;;
13012;SDS011;22580;57.670;12.006;2023-09-08T04:15:20;1.67;;;1.58;;
13012;SDS011;22580;57.670;12.006;2023-09-08T04:17:48;1.83;;;1.73;;
13012;SDS011;22580;57.670;12.006;2023-09-08T04:20:16;1.30;;;1.30;;
13012;SDS011;22580;57.670;12.006;2023-09-08T04:22:43;1.23;;;1.23;;
13012;SDS011;22580;57.670;12.006;2023-09-08T04:25:12;1.08;;;1.08;;
13012;SDS011;22580;57.670;12.006;2023-09-08T04:27:40;1.45;;;1.40;;
13012;SDS011;22580;57.670;12.006;2023-09-08T04:30:08;1.48;;;1.40;;
13012;SDS011;22580;57.670;12.006;2023-09-08T04:32:35;1.70;;;1.60;;
13012;SDS011;22580;57.670;12.006;2023-09-08T04:35:06;1.60;;;1.50;;
13012;SDS011;22580;57.670;12.006;2023-09-08T04:37:33;1.17;;;1.17;;
13012;SDS011;22580;57.670;12.006;2023-09-08T04:40:01;1.30;;;1.30;;
13012;SDS011;22580;57.670;12.006;2023-09-08T04:42:29;1.30;;;1.30;;
13012;SDS011;22580;57.670;12.006;2023-09-08T04:44:56;1.00;;;1.00;;
13012;SDS011;22580;57.670;12.006;2023-09-08T04:47:23;0.90;;;0.90;;
13012;SDS011;22580;57.670;12.006;2023-09-08T04:49:50;0.80;;;0.80;;
13012;SDS011;22580;57.670;12.006;2023-09-08T04:52:19;1.00;;;1.00;;
13012;SDS011;22580;57.670;12.006;2023-09-08T04:54:46;0.93;;;0.93;;
13012;SDS011;22580;57.670;12.006;2023-09-08T04:57:14;0.68;;;0.68;;
13012;SDS011;22580;57.670;12.006;2023-09-08T04:59:41;0.70;;;0.70;;
13012;SDS011;22580;57.670;12.006;2023-09-08T05:02:08;1.00;;;1.00;;
13012;SDS011;22580;57.670;12.006;2023-09-08T05:04:35;1.00;;;1.00;;
13012;SDS011;22580;57.670;12.006;2023-09-08T05:07:02;0.57;;;0.57;;
13012;SDS011;22580;57.670;12.006;2023-09-08T05:09:31;0.63;;;0.63;;
13012;SDS011;22580;57.670;12.006;2023-09-08T05:11:58;0.68;;;0.68;;
13012;SDS011;22580;57.670;12.006;2023-09-08T05:14:25;0.90;;;0.90;;
13012;SDS011;22580;57.670;12.006;2023-09-08T05:16:52;0.80;;;0.80;;
13012;SDS011;22580;57.670;12.006;2023-09-08T05:19:21;1.20;;;1.20;;
13012;SDS011;22580;57.670;12.006;2023-09-08T05:21:49;1.20;;;1.20;;
13012;SDS011;22580;57.670;12.006;2023-09-08T05:24:17;1.00;;;1.00;;
13012;SDS011;22580;57.670;12.006;2023-09-08T05:26:45;0.80;;;0.80;;
13012;SDS011;22580;57.670;12.006;2023-09-08T05:29:13;0.73;;;0.73;;
13012;SDS011;22580;57.670;12.006;2023-09-08T05:31:40;0.70;;;0.70;;
13012;SDS011;22580;57.670;12.006;2023-09-08T05:34:07;0.90;;;0.90;;
13012;SDS011;22580;57.670;12.006;2023-09-08T05:36:34;0.77;;;0.77;;
13012;SDS011;22580;57.670;12.006;2023-09-08T05:39:03;0.70;;;0.70;;
13012;SDS011;22580;57.670;12.006;2023-09-08T05:41:31;0.93;;;0.93;;
13012;SDS011;22580;57.670;12.006;2023-09-08T05:44:00;0.63;;;0.63;;
13012;SDS011;22580;57.670;12.006;2023-09-08T05:46:28;0.80;;;0.80;;
13012;SDS011;22580;57.670;12.006;2023-09-08T05:48:55;0.68;;;0.68;;
13012;SDS011;22580;57.670;12.006;2023-09-08T05:51:22;1.05;;;1.05;;
13012;SDS011;22580;57.670;12.006;2023-09-08T05:53:49;0.90;;;0.90;;
13012;SDS011;22580;57.670;12.006;2023-09-08T05:56:18;1.13;;;1.05;;
13012;SDS011;22580;57.670;12.006;2023-09-08T05:58:46;1.02;;;1.02;;
13012;SDS011;22580;57.670;12.006;2023-09-08T06:01:15;0.98;;;0.98;;
13012;SDS011;22580;57.670;12.006;2023-09-08T06:03:42;0.90;;;0.90;;
13012;SDS011;22580;57.670;12.006;2023-09-08T06:06:09;1.70;;;1.60;;
13012;SDS011;22580;57.670;12.006;2023-09-08T06:08:36;1.77;;;1.67;;
13012;SDS011;22580;57.670;12.006;2023-09-08T06:11:04;1.48;;;1.40;;
13012;SDS011;22580;57.670;12.006;2023-09-08T06:13:31;1.63;;;1.52;;
13012;SDS011;22580;57.670;12.006;2023-09-08T06:15:58;1.23;;;1.23;;
13012;SDS011;22580;57.670;12.006;2023-09-08T06:18:27;1.33;;;1.25;;
13012;SDS011;22580;57.670;12.006;2023-09-08T06:20:55;1.77;;;1.67;;
13012;SDS011;22580;57.670;12.006;2023-09-08T06:23:23;2.03;;;1.92;;
13012;SDS011;22580;57.670;12.006;2023-09-08T06:25:56;2.25;;;2.15;;
13012;SDS011;22580;57.670;12.006;2023-09-08T06:28:25;2.10;;;2.00;;
13012;SDS011;22580;57.670;12.006;2023-09-08T06:30:52;2.15;;;2.05;;
13012;SDS011;22580;57.670;12.006;2023-09-08T06:33:19;1.58;;;1.48;;
13012;SDS011;22580;57.670;12.006;2023-09-08T06:35:49;2.22;;;2.03;;
13012;SDS011;22580;57.670;12.006;2023-09-08T06:38:22;1.88;;;1.77;;
13012;SDS011;22580;57.670;12.006;2023-09-08T06:40:49;2.05;;;1.95;;
13012;SDS011;22580;57.670;12.006;2023-09-08T06:43:18;1.80;;;1.70;;
13012;SDS011;22580;57.670;12.006;2023-09-08T06:45:47;2.00;;;1.90;;
13012;SDS011;22580;57.670;12.006;2023-09-08T06:48:14;1.50;;;1.40;;
13012;SDS011;22580;57.670;12.006;2023-09-08T06:50:41;1.55;;;1.55;;
13012;SDS011;22580;57.670;12.006;2023-09-08T06:53:10;1.45;;;1.45;;
13012;SDS011;22580;57.670;12.006;2023-09-08T06:55:37;1.60;;;1.50;;
13012;SDS011;22580;57.670;12.006;2023-09-08T06:58:05;1.70;;;1.60;;
13012;SDS011;22580;57.670;12.006;2023-09-08T07:00:32;1.20;;;1.20;;
13012;SDS011;22580;57.670;12.006;2023-09-08T07:02:59;1.00;;;1.00;;
13012;SDS011;22580;57.670;12.006;2023-09-08T07:05:27;1.10;;;1.10;;
13012;SDS011;22580;57.670;12.006;2023-09-08T07:07:55;0.90;;;0.90;;
13012;SDS011;22580;57.670;12.006;2023-09-08T07:10:23;1.10;;;1.10;;
13012;SDS011;22580;57.670;12.006;2023-09-08T07:12:50;1.20;;;1.20;;
13012;SDS011;22580;57.670;12.006;2023-09-08T07:15:17;0.90;;;0.90;;
13012;SDS011;22580;57.670;12.006;2023-09-08T07:17:44;0.90;;;0.90;;
13012;SDS011;22580;57.670;12.006;2023-09-08T07:20:11;0.80;;;0.80;;
13012;SDS011;22580;57.670;12.006;2023-09-08T07:22:39;0.80;;;0.80;;
13012;SDS011;22580;57.670;12.006;2023-09-08T07:25:06;0.75;;;0.75;;
13012;SDS011;22580;57.670;12.006;2023-09-08T07:27:42;0.60;;;0.60;;
13012;SDS011;22580;57.670;12.006;2023-09-08T07:30:10;0.77;;;0.77;;
13012;SDS011;22580;57.670;12.006;2023-09-08T07:32:37;0.63;;;0.63;;
13012;SDS011;22580;57.670;12.006;2023-09-08T07:35:04;0.75;;;0.75;;
13012;SDS011;22580;57.670;12.006;2023-09-08T07:37:39;0.80;;;0.80;;
13012;SDS011;22580;57.670;12.006;2023-09-08T07:40:06;1.15;;;1.10;;
13012;SDS011;22580;57.670;12.006;2023-09-08T07:42:35;1.30;;;1.30;;
13012;SDS011;22580;57.670;12.006;2023-09-08T07:45:04;1.10;;;1.10;;
13012;SDS011;22580;57.670;12.006;2023-09-08T07:47:32;1.00;;;1.00;;
13012;SDS011;22580;57.670;12.006;2023-09-08T07:52:47;1.20;;;1.20;;
13012;SDS011;22580;57.670;12.006;2023-09-08T07:55:16;1.25;;;1.25;;
13012;SDS011;22580;57.670;12.006;2023-09-08T07:57:49;1.55;;;1.45;;
13012;SDS011;22580;57.670;12.006;2023-09-08T08:00:19;1.95;;;1.85;;
13012;SDS011;22580;57.670;12.006;2023-09-08T08:02:48;2.38;;;2.00;;
13012;SDS011;22580;57.670;12.006;2023-09-08T08:05:25;2.60;;;2.40;;
13012;SDS011;22580;57.670;12.006;2023-09-08T08:07:52;1.95;;;1.85;;
13012;SDS011;22580;57.670;12.006;2023-09-08T08:10:19;2.78;;;2.58;;
13012;SDS011;22580;57.670;12.006;2023-09-08T08:12:46;2.60;;;2.40;;
13012;SDS011;22580;57.670;12.006;2023-09-08T08:15:13;2.30;;;2.10;;
13012;SDS011;22580;57.670;12.006;2023-09-08T08:17:42;2.30;;;2.10;;
13012;SDS011;22580;57.670;12.006;2023-09-08T08:20:09;2.20;;;2.00;;
13012;SDS011;22580;57.670;12.006;2023-09-08T08:22:42;2.35;;;2.15;;
13012;SDS011;22580;57.670;12.006;2023-09-08T08:25:09;2.05;;;1.95;;
13012;SDS011;22580;57.670;12.006;2023-09-08T08:27:37;1.95;;;1.85;;
13012;SDS011;22580;57.670;12.006;2023-09-08T08:30:05;2.65;;;2.45;;
13012;SDS011;22580;57.670;12.006;2023-09-08T08:32:33;2.33;;;2.17;;
13012;SDS011;22580;57.670;12.006;2023-09-08T08:35:02;2.75;;;2.55;;
13012;SDS011;22580;57.670;12.006;2023-09-08T08:37:30;2.70;;;2.50;;
13012;SDS011;22580;57.670;12.006;2023-09-08T08:39:57;2.58;;;2.38;;
13012;SDS011;22580;57.670;12.006;2023-09-08T08:42:29;2.38;;;2.17;;
13012;SDS011;22580;57.670;12.006;2023-09-08T08:44:59;2.10;;;1.90;;
13012;SDS011;22580;57.670;12.006;2023-09-08T08:47:28;2.20;;;2.10;;
13012;SDS011;22580;57.670;12.006;2023-09-08T08:49:56;2.65;;;2.45;;
13012;SDS011;22580;57.670;12.006;2023-09-08T08:52:26;1.85;;;1.75;;
13012;SDS011;22580;57.670;12.006;2023-09-08T08:54:54;1.85;;;1.75;;
13012;SDS011;22580;57.670;12.006;2023-09-08T08:57:22;1.95;;;1.85;;
13012;SDS011;22580;57.670;12.006;2023-09-08T08:59:51;1.83;;;1.73;;
13012;SDS011;22580;57.670;12.006;2023-09-08T09:02:19;1.83;;;1.73;;
13012;SDS011;22580;57.670;12.006;2023-09-08T09:04:48;1.42;;;1.33;;
13012;SDS011;22580;57.670;12.006;2023-09-08T09:07:15;1.63;;;1.52;;
13012;SDS011;22580;57.670;12.006;2023-09-08T09:09:46;1.98;;;1.88;;
13012;SDS011;22580;57.670;12.006;2023-09-08T09:12:13;1.70;;;1.60;;
13012;SDS011;22580;57.670;12.006;2023-09-08T09:14:44;2.47;;;2.30;;
13012;SDS011;22580;57.670;12.006;2023-09-08T09:17:13;1.92;;;1.83;;
13012;SDS011;22580;57.670;12.006;2023-09-08T09:19:40;1.80;;;1.70;;
13012;SDS011;22580;57.670;12.006;2023-09-08T09:22:10;1.67;;;1.58;;
13012;SDS011;22580;57.670;12.006;2023-09-08T09:24:38;1.83;;;1.73;;
13012;SDS011;22580;57.670;12.006;2023-09-08T09:27:12;1.50;;;1.40;;
13012;SDS011;22580;57.670;12.006;2023-09-08T09:29:44;1.90;;;1.80;;
13012;SDS011;22580;57.670;12.006;2023-09-08T09:32:14;1.80;;;1.70;;
13012;SDS011;22580;57.670;12.006;2023-09-08T09:34:48;1.75;;;1.65;;
13012;SDS011;22580;57.670;12.006;2023-09-08T09:37:26;2.10;;;2.00;;
13012;SDS011;22580;57.670;12.006;2023-09-08T09:39:54;1.65;;;1.60;;
13012;SDS011;22580;57.670;12.006;2023-09-08T09:42:23;1.65;;;1.60;;
13012;SDS011;22580;57.670;12.006;2023-09-08T09:44:51;1.65;;;1.63;;
13012;SDS011;22580;57.670;12.006;2023-09-08T09:47:22;1.90;;;1.80;;
13012;SDS011;22580;57.670;12.006;2023-09-08T09:49:54;2.33;;;2.13;;
13012;SDS011;22580;57.670;12.006;2023-09-08T09:52:23;2.10;;;2.00;;
13012;SDS011;22580;57.670;12.006;2023-09-08T09:54:51;1.83;;;1.73;;
13012;SDS011;22580;57.670;12.006;2023-09-08T09:57:21;1.80;;;1.70;;
13012;SDS011;22580;57.670;12.006;2023-09-08T09:59:51;2.38;;;2.28;;
13012;SDS011;22580;57.670;12.006;2023-09-08T10:02:24;2.30;;;2.20;;
13012;SDS011;22580;57.670;12.006;2023-09-08T10:04:53;2.15;;;2.05;;
13012;SDS011;22580;57.670;12.006;2023-09-08T10:07:22;1.98;;;1.88;;
13012;SDS011;22580;57.670;12.006;2023-09-08T10:09:50;1.98;;;1.88;;
13012;SDS011;22580;57.670;12.006;2023-09-08T10:12:17;2.10;;;2.00;;
13012;SDS011;22580;57.670;12.006;2023-09-08T10:14:50;1.65;;;1.60;;
13012;SDS011;22580;57.670;12.006;2023-09-08T10:17:22;1.70;;;1.60;;
13012;SDS011;22580;57.670;12.006;2023-09-08T10:19:56;2.05;;;1.95;;
13012;SDS011;22580;57.670;12.006;2023-09-08T10:22:33;1.95;;;1.85;;
13012;SDS011;22580;57.670;12.006;2023-09-08T10:25:05;2.40;;;2.30;;
13012;SDS011;22580;57.670;12.006;2023-09-08T10:27:34;2.40;;;2.30;;
13012;SDS011;22580;57.670;12.006;2023-09-08T10:30:04;1.92;;;1.83;;
13012;SDS011;22580;57.670;12.006;2023-09-08T10:32:33;2.22;;;2.13;;
13012;SDS011;22580;57.670;12.006;2023-09-08T10:35:03;2.78;;;2.40;;
13012;SDS011;22580;57.670;12.006;2023-09-08T10:37:31;2.20;;;2.10;;
13012;SDS011;22580;57.670;12.006;2023-09-08T10:42:49;2.10;;;2.00;;
13012;SDS011;22580;57.670;12.006;2023-09-08T10:45:34;2.10;;;2.00;;
13012;SDS011;22580;57.670;12.006;2023-09-08T10:48:01;1.90;;;1.80;;
13012;SDS011;22580;57.670;12.006;2023-09-08T10:50:32;2.00;;;1.90;;
13012;SDS011;22580;57.670;12.006;2023-09-08T10:53:05;2.15;;;2.05;;
13012;SDS011;22580;57.670;12.006;2023-09-08T10:55:36;1.80;;;1.70;;
13012;SDS011;22580;57.670;12.006;2023-09-08T10:58:11;1.80;;;1.70;;
13012;SDS011;22580;57.670;12.006;2023-09-08T11:00:47;2.03;;;1.92;;
13012;SDS011;22580;57.670;12.006;2023-09-08T11:03:26;2.10;;;2.00;;
13012;SDS011;22580;57.670;12.006;2023-09-08T11:05:54;2.10;;;2.00;;
13012;SDS011;22580;57.670;12.006;2023-09-08T11:08:25;1.70;;;1.70;;
13012;SDS011;22580;57.670;12.006;2023-09-08T11:10:55;2.33;;;2.22;;
13012;SDS011;22580;57.670;12.006;2023-09-08T11:13:24;2.30;;;2.20;;
13012;SDS011;22580;57.670;12.006;2023-09-08T11:15:55;2.28;;;2.17;;
13012;SDS011;22580;57.670;12.006;2023-09-08T11:18:26;2.40;;;2.28;;
13012;SDS011;22580;57.670;12.006;2023-09-08T11:20:53;2.13;;;2.03;;
13012;SDS011;22580;57.670;12.006;2023-09-08T11:23:22;2.33;;;2.22;;
13012;SDS011;22580;57.670;12.006;2023-09-08T11:25:54;2.33;;;2.22;;
13012;SDS011;22580;57.670;12.006;2023-09-08T11:28:34;1.98;;;1.88;;
13012;SDS011;22580;57.670;12.006;2023-09-08T11:31:09;1.80;;;1.70;;
13012;SDS011;22580;57.670;12.006;2023-09-08T11:33:38;2.08;;;1.98;;
13012;SDS011;22580;57.670;12.006;2023-09-08T11:36:13;2.10;;;2.00;;
13012;SDS011;22580;57.670;12.006;2023-09-08T11:38:45;2.00;;;1.90;;
13012;SDS011;22580;57.670;12.006;2023-09-08T11:41:12;2.00;;;1.90;;
13012;SDS011;22580;57.670;12.006;2023-09-08T11:43:42;1.90;;;1.80;;
13012;SDS011;22580;57.670;12.006;2023-09-08T11:46:20;1.67;;;1.58;;
13012;SDS011;22580;57.670;12.006;2023-09-08T11:48:53;1.67;;;1.65;;
13012;SDS011;22580;57.670;12.006;2023-09-08T11:51:22;1.73;;;1.70;;
13012;SDS011;22580;57.670;12.006;2023-09-08T11:53:50;2.50;;;2.40;;
13012;SDS011;22580;57.670;12.006;2023-09-08T11:56:18;2.63;;;2.53;;
13012;SDS011;22580;57.670;12.006;2023-09-08T11:58:55;2.35;;;2.15;;
13012;SDS011;22580;57.670;12.006;2023-09-08T12:01:26;1.90;;;1.80;;
13012;SDS011;22580;57.670;12.006;2023-09-08T12:03:56;2.75;;;2.55;;
13012;SDS011;22580;57.670;12.006;2023-09-08T12:06:24;2.63;;;2.53;;
13012;SDS011;22580;57.670;12.006;2023-09-08T12:08:55;2.70;;;2.60;;
13012;SDS011;22580;57.670;12.006;2023-09-08T12:11:24;2.78;;;2.67;;
13012;SDS011;22580;57.670;12.006;2023-09-08T12:14:00;2.35;;;2.25;;
13012;SDS011;22580;57.670;12.006;2023-09-08T12:16:29;3.33;;;3.13;;
13012;SDS011;22580;57.670;12.006;2023-09-08T12:18:55;2.70;;;2.60;;
13012;SDS011;22580;57.670;12.006;2023-09-08T12:21:53;3.10;;;2.90;;
13012;SDS011;22580;57.670;12.006;2023-09-08T12:27:12;3.40;;;3.20;;
13012;SDS011;22580;57.670;12.006;2023-09-08T12:29:44;3.30;;;3.15;;
13012;SDS011;22580;57.670;12.006;2023-09-08T12:32:24;4.40;;;4.10;;
13012;SDS011;22580;57.670;12.006;2023-09-08T12:34:53;3.15;;;2.95;;
13012;SDS011;22580;57.670;12.006;2023-09-08T12:37:20;3.10;;;2.90;;
13012;SDS011;22580;57.670;12.006;2023-09-08T12:39:48;2.67;;;2.58;;
13012;SDS011;22580;57.670;12.006;2023-09-08T12:42:18;3.70;;;3.50;;
13012;SDS011;22580;57.670;12.006;2023-09-08T12:44:46;3.63;;;3.42;;
13012;SDS011;22580;57.670;12.006;2023-09-08T12:47:15;2.65;;;2.55;;
13012;SDS011;22580;57.670;12.006;2023-09-08T12:49:43;2.83;;;2.72;;
13012;SDS011;22580;57.670;12.006;2023-09-08T12:52:10;2.17;;;2.08;;
13012;SDS011;22580;57.670;12.006;2023-09-08T12:54:37;2.15;;;2.05;;
13012;SDS011;22580;57.670;12.006;2023-09-08T12:57:05;1.92;;;1.83;;
13012;SDS011;22580;57.670;12.006;2023-09-08T12:59:32;2.30;;;2.20;;
13012;SDS011;22580;57.670;12.006;2023-09-08T13:02:07;2.38;;;2.28;;
13012;SDS011;22580;57.670;12.006;2023-09-08T13:04:37;2.38;;;2.28;;
13012;SDS011;22580;57.670;12.006;2023-09-08T13:07:06;2.50;;;2.40;;
13012;SDS011;22580;57.670;12.006;2023-09-08T13:09:33;2.60;;;2.40;;
13012;SDS011;22580;57.670;12.006;2023-09-08T13:12:00;2.22;;;2.13;;
13012;SDS011;22580;57.670;12.006;2023-09-08T13:14:27;2.03;;;1.92;;
13012;SDS011;22580;57.670;12.006;2023-09-08T13:16:54;2.10;;;2.00;;
13012;SDS011;22580;57.670;12.006;2023-09-08T13:19:21;2.08;;;1.98;;
13012;SDS011;22580;57.670;12.006;2023-09-08T13:21:48;1.60;;;1.60;;
13012;SDS011;22580;57.670;12.006;2023-09-08T13:24:17;1.23;;;1.23;;
13012;SDS011;22580;57.670;12.006;2023-09-08T13:26:45;1.23;;;1.23;;
13012;SDS011;22580;57.670;12.006;2023-09-08T13:29:12;1.55;;;1.45;;
13012;SDS011;22580;57.670;12.006;2023-09-08T13:31:38;1.90;;;1.80;;
13012;SDS011;22580;57.670;12.006;2023-09-08T13:34:06;2.00;;;1.90;;
13012;SDS011;22580;57.670;12.006;2023-09-08T13:36:33;1.98;;;1.88;;
13012;SDS011;22580;57.670;12.006;2023-09-08T13:39:02;2.03;;;1.92;;
13012;SDS011;22580;57.670;12.006;2023-09-08T13:44:17;1.58;;;1.58;;
13012;SDS011;22580;57.670;12.006;2023-09-08T13:46:45;1.63;;;1.60;;
13012;SDS011;22580;57.670;12.006;2023-09-08T13:49:12;1.60;;;1.60;;
13012;SDS011;22580;57.670;12.006;2023-09-08T13:51:39;1.58;;;1.58;;
13012;SDS011;22580;57.670;12.006;2023-09-08T13:54:06;1.60;;;1.50;;
13012;SDS011;22580;57.670;12.006;2023-09-08T13:56:37;1.60;;;1.50;;
13012;SDS011;22580;57.670;12.006;2023-09-08T13:59:08;2.03;;;1.92;;
13012;SDS011;22580;57.670;12.006;2023-09-08T14:01:36;1.90;;;1.80;;
13012;SDS011;22580;57.670;12.006;2023-09-08T14:04:04;1.63;;;1.63;;
13012;SDS011;22580;57.670;12.006;2023-09-08T14:06:34;1.60;;;1.60;;
13012;SDS011;22580;57.670;12.006;2023-09-08T14:09:01;1.60;;;1.60;;
13012;SDS011;22580;57.670;12.006;2023-09-08T14:11:28;1.33;;;1.33;;
13012;SDS011;22580;57.670;12.006;2023-09-08T14:13:55;1.58;;;1.58;;
13012;SDS011;22580;57.670;12.006;2023-09-08T14:16:27;1.60;;;1.55;;
13012;SDS011;22580;57.670;12.006;2023-09-08T14:18:54;1.95;;;1.85;;
13012;SDS011;22580;57.670;12.006;2023-09-08T14:21:24;1.67;;;1.67;;
13012;SDS011;22580;57.670;12.006;2023-09-08T14:23:52;1.67;;;1.65;;
13012;SDS011;22580;57.670;12.006;2023-09-08T14:26:19;1.80;;;1.70;;
13012;SDS011;22580;57.670;12.006;2023-09-08T14:28:46;2.00;;;1.90;;
13012;SDS011;22580;57.670;12.006;2023-09-08T14:31:15;2.30;;;2.20;;
13012;SDS011;22580;57.670;12.006;2023-09-08T14:33:46;2.80;;;2.60;;
13012;SDS011;22580;57.670;12.006;2023-09-08T14:36:16;2.47;;;2.38;;
13012;SDS011;22580;57.670;12.006;2023-09-08T14:38:44;2.40;;;2.30;;
13012;SDS011;22580;57.670;12.006;2023-09-08T14:41:12;2.05;;;1.95;;
13012;SDS011;22580;57.670;12.006;2023-09-08T14:43:40;2.10;;;2.00;;
13012;SDS011;22580;57.670;12.006;2023-09-08T14:46:06;2.20;;;2.10;;
13012;SDS011;22580;57.670;12.006;2023-09-08T14:48:34;1.48;;;1.48;;
13012;SDS011;22580;57.670;12.006;2023-09-08T14:51:04;1.15;;;1.15;;
13012;SDS011;22580;57.670;12.006;2023-09-08T14:53:32;1.50;;;1.50;;
13012;SDS011;22580;57.670;12.006;2023-09-08T14:55:59;1.42;;;1.42;;